Terminal Aerodrome Forecast
Issued by NWS

Home | Current Version | Previous Version | Text Only | Print | Product List | Glossary On
Versions: 1 2 3 4 5 6 7 8 9 10 11 12 13 14 15 16 17 18 19 20 21 22 23 24 25 26 27 28 29 30 31 32 33 34 35 36 37 38 39 40
491
FTUS43 KPAH 190847 RRA
TAFOWB
TAF
KOWB 190847Z 1909/2006 36013G21KT 5SM -SHRA BR OVC008
     FM191300 35016G24KT P6SM VCSH OVC011
     FM191700 34014G23KT P6SM -SHRA OVC010
     FM200100 35017KT P6SM SHRA OVC011=

USA.gov is the U.S. government's official web portal to all federal, state and local government web resources and services.